sensor_id;sensor_type;location;lat;lon;timestamp;temperature;humidity
2565;DHT22;1292;48.020;7.822;2022-07-18T05:47:01;18.70;99.90
2565;DHT22;1292;48.020;7.822;2022-07-18T05:49:28;18.80;99.90
2565;DHT22;1292;48.020;7.822;2022-07-18T05:51:55;18.80;99.90
2565;DHT22;1292;48.020;7.822;2022-07-18T05:54:22;18.90;99.90
2565;DHT22;1292;48.020;7.822;2022-07-18T05:56:49;19.10;99.90
2565;DHT22;1292;48.020;7.822;2022-07-18T05:59:17;19.20;99.90
2565;DHT22;1292;48.020;7.822;2022-07-18T06:01:44;19.20;99.90
2565;DHT22;1292;48.020;7.822;2022-07-18T06:04:12;19.40;99.90
2565;DHT22;1292;48.020;7.822;2022-07-18T06:06:40;19.50;99.90
2565;DHT22;1292;48.020;7.822;2022-07-18T06:09:07;19.50;99.90
2565;DHT22;1292;48.020;7.822;2022-07-18T06:11:34;19.70;99.90
2565;DHT22;1292;48.020;7.822;2022-07-18T06:14:02;19.80;99.90
2565;DHT22;1292;48.020;7.822;2022-07-18T06:16:29;20.00;99.90
2565;DHT22;1292;48.020;7.822;2022-07-18T06:18:56;20.20;99.90
2565;DHT22;1292;48.020;7.822;2022-07-18T06:21:24;20.30;99.90
2565;DHT22;1292;48.020;7.822;2022-07-18T06:23:51;20.40;99.90
2565;DHT22;1292;48.020;7.822;2022-07-18T06:26:18;20.50;99.90
2565;DHT22;1292;48.020;7.822;2022-07-18T06:28:45;20.50;99.90
2565;DHT22;1292;48.020;7.822;2022-07-18T06:31:12;20.70;99.90
2565;DHT22;1292;48.020;7.822;2022-07-18T06:33:42;20.70;99.90
2565;DHT22;1292;48.020;7.822;2022-07-18T06:36:09;20.80;99.70
2565;DHT22;1292;48.020;7.822;2022-07-18T06:38:38;20.90;99.90
2565;DHT22;1292;48.020;7.822;2022-07-18T06:41:05;21.00;99.90
2565;DHT22;1292;48.020;7.822;2022-07-18T06:43:33;21.10;99.50
2565;DHT22;1292;48.020;7.822;2022-07-18T06:46:00;21.10;97.70
2565;DHT22;1292;48.020;7.822;2022-07-18T06:48:27;21.20;98.10
2565;DHT22;1292;48.020;7.822;2022-07-18T06:50:59;21.30;98.10
2565;DHT22;1292;48.020;7.822;2022-07-18T06:53:28;21.40;98.10
2565;DHT22;1292;48.020;7.822;2022-07-18T06:55:56;21.50;97.90
2565;DHT22;1292;48.020;7.822;2022-07-18T06:58:24;21.60;97.70
2565;DHT22;1292;48.020;7.822;2022-07-18T07:00:51;21.70;97.40
2565;DHT22;1292;48.020;7.822;2022-07-18T07:03:18;21.80;97.60
2565;DHT22;1292;48.020;7.822;2022-07-18T07:05:45;21.90;98.00
2565;DHT22;1292;48.020;7.822;2022-07-18T07:08:11;22.00;98.00
2565;DHT22;1292;48.020;7.822;2022-07-18T07:10:38;22.10;97.60
2565;DHT22;1292;48.020;7.822;2022-07-18T07:13:07;22.20;97.40
2565;DHT22;1292;48.020;7.822;2022-07-18T07:15:34;22.30;97.00
2565;DHT22;1292;48.020;7.822;2022-07-18T07:18:01;22.30;96.70
2565;DHT22;1292;48.020;7.822;2022-07-18T07:20:28;22.40;97.30
2565;DHT22;1292;48.020;7.822;2022-07-18T07:22:57;22.50;96.20
2565;DHT22;1292;48.020;7.822;2022-07-18T07:25:27;22.60;95.60
2565;DHT22;1292;48.020;7.822;2022-07-18T07:27:54;22.70;95.80
2565;DHT22;1292;48.020;7.822;2022-07-18T07:30:23;22.80;95.00
2565;DHT22;1292;48.020;7.822;2022-07-18T07:32:50;22.80;94.90
2565;DHT22;1292;48.020;7.822;2022-07-18T07:35:18;22.80;94.30
2565;DHT22;1292;48.020;7.822;2022-07-18T07:37:46;22.80;95.50
2565;DHT22;1292;48.020;7.822;2022-07-18T07:40:14;22.90;95.50
2565;DHT22;1292;48.020;7.822;2022-07-18T07:42:41;23.00;94.80
2565;DHT22;1292;48.020;7.822;2022-07-18T07:45:09;23.00;94.60
2565;DHT22;1292;48.020;7.822;2022-07-18T07:47:38;23.10;94.70
2565;DHT22;1292;48.020;7.822;2022-07-18T07:50:08;23.20;95.10
2565;DHT22;1292;48.020;7.822;2022-07-18T07:52:37;23.30;95.30
2565;DHT22;1292;48.020;7.822;2022-07-18T07:55:05;23.40;95.10
2565;DHT22;1292;48.020;7.822;2022-07-18T07:57:32;23.40;95.20
2565;DHT22;1292;48.020;7.822;2022-07-18T08:00:03;23.50;95.20
2565;DHT22;1292;48.020;7.822;2022-07-18T08:02:30;23.60;95.50
2565;DHT22;1292;48.020;7.822;2022-07-18T08:04:58;23.70;95.60
2565;DHT22;1292;48.020;7.822;2022-07-18T08:07:25;23.70;94.80
2565;DHT22;1292;48.020;7.822;2022-07-18T08:09:52;23.80;94.70
2565;DHT22;1292;48.020;7.822;2022-07-18T08:12:19;23.90;94.60
2565;DHT22;1292;48.020;7.822;2022-07-18T08:14:46;24.00;94.70
2565;DHT22;1292;48.020;7.822;2022-07-18T08:17:13;24.10;95.30
2565;DHT22;1292;48.020;7.822;2022-07-18T08:19:40;24.10;94.80
2565;DHT22;1292;48.020;7.822;2022-07-18T08:22:08;24.20;94.80
2565;DHT22;1292;48.020;7.822;2022-07-18T08:24:35;24.30;94.20
2565;DHT22;1292;48.020;7.822;2022-07-18T08:27:02;24.40;94.00
2565;DHT22;1292;48.020;7.822;2022-07-18T08:29:29;24.40;93.70
2565;DHT22;1292;48.020;7.822;2022-07-18T08:31:56;24.40;93.50
2565;DHT22;1292;48.020;7.822;2022-07-18T08:34:23;24.40;93.30
2565;DHT22;1292;48.020;7.822;2022-07-18T08:36:49;24.60;93.30
2565;DHT22;1292;48.020;7.822;2022-07-18T08:39:18;24.70;93.80
2565;DHT22;1292;48.020;7.822;2022-07-18T08:41:45;24.80;94.00
2565;DHT22;1292;48.020;7.822;2022-07-18T08:44:13;25.00;93.00
2565;DHT22;1292;48.020;7.822;2022-07-18T08:46:40;25.00;93.00
2565;DHT22;1292;48.020;7.822;2022-07-18T08:49:10;25.10;92.70
2565;DHT22;1292;48.020;7.822;2022-07-18T08:51:37;25.20;92.80
2565;DHT22;1292;48.020;7.822;2022-07-18T08:54:05;25.30;93.20
2565;DHT22;1292;48.020;7.822;2022-07-18T08:56:33;25.30;92.90
2565;DHT22;1292;48.020;7.822;2022-07-18T08:59:01;25.40;92.20
2565;DHT22;1292;48.020;7.822;2022-07-18T09:01:28;25.60;93.10
2565;DHT22;1292;48.020;7.822;2022-07-18T09:03:55;25.90;92.30
2565;DHT22;1292;48.020;7.822;2022-07-18T09:06:42;26.20;92.10
2565;DHT22;1292;48.020;7.822;2022-07-18T09:09:12;26.50;90.90
2565;DHT22;1292;48.020;7.822;2022-07-18T09:11:51;26.70;91.00
2565;DHT22;1292;48.020;7.822;2022-07-18T09:14:29;26.80;91.00
2565;DHT22;1292;48.020;7.822;2022-07-18T09:17:00;26.90;90.20
2565;DHT22;1292;48.020;7.822;2022-07-18T09:19:27;27.00;90.50
2565;DHT22;1292;48.020;7.822;2022-07-18T09:21:55;27.20;90.50
2565;DHT22;1292;48.020;7.822;2022-07-18T09:24:49;27.40;89.60
2565;DHT22;1292;48.020;7.822;2022-07-18T09:27:26;27.40;88.40
2565;DHT22;1292;48.020;7.822;2022-07-18T09:30:17;27.50;87.10
2565;DHT22;1292;48.020;7.822;2022-07-18T09:32:46;27.50;87.20
2565;DHT22;1292;48.020;7.822;2022-07-18T09:35:14;27.60;86.60
2565;DHT22;1292;48.020;7.822;2022-07-18T09:37:55;27.70;85.90
2565;DHT22;1292;48.020;7.822;2022-07-18T09:40:23;27.70;85.90
2565;DHT22;1292;48.020;7.822;2022-07-18T09:42:54;27.80;85.00
2565;DHT22;1292;48.020;7.822;2022-07-18T09:45:26;27.80;85.40
2565;DHT22;1292;48.020;7.822;2022-07-18T09:47:54;27.90;86.80
2565;DHT22;1292;48.020;7.822;2022-07-18T09:50:24;27.90;86.50
2565;DHT22;1292;48.020;7.822;2022-07-18T09:52:59;28.00;85.50
2565;DHT22;1292;48.020;7.822;2022-07-18T09:55:26;28.10;85.40
2565;DHT22;1292;48.020;7.822;2022-07-18T09:58:05;28.00;83.50
2565;DHT22;1292;48.020;7.822;2022-07-18T10:00:34;28.10;83.70
2565;DHT22;1292;48.020;7.822;2022-07-18T10:03:02;28.10;84.10
2565;DHT22;1292;48.020;7.822;2022-07-18T10:05:31;28.30;85.50
2565;DHT22;1292;48.020;7.822;2022-07-18T10:07:58;28.50;84.60
2565;DHT22;1292;48.020;7.822;2022-07-18T10:10:27;28.60;85.10
2565;DHT22;1292;48.020;7.822;2022-07-18T10:12:55;28.70;83.40
2565;DHT22;1292;48.020;7.822;2022-07-18T10:15:27;28.80;81.10
2565;DHT22;1292;48.020;7.822;2022-07-18T10:17:54;28.90;81.70
2565;DHT22;1292;48.020;7.822;2022-07-18T10:20:30;29.00;80.50
2565;DHT22;1292;48.020;7.822;2022-07-18T10:23:01;29.00;79.70
2565;DHT22;1292;48.020;7.822;2022-07-18T10:25:28;29.10;81.70
2565;DHT22;1292;48.020;7.822;2022-07-18T10:28:04;29.00;82.10
2565;DHT22;1292;48.020;7.822;2022-07-18T10:30:35;29.20;82.10
2565;DHT22;1292;48.020;7.822;2022-07-18T10:33:03;29.20;82.40
2565;DHT22;1292;48.020;7.822;2022-07-18T10:35:57;29.40;82.50
2565;DHT22;1292;48.020;7.822;2022-07-18T10:38:24;29.50;82.00
2565;DHT22;1292;48.020;7.822;2022-07-18T10:41:08;29.70;82.30
2565;DHT22;1292;48.020;7.822;2022-07-18T10:46:19;29.90;78.00
2565;DHT22;1292;48.020;7.822;2022-07-18T10:48:56;29.90;77.10
2565;DHT22;1292;48.020;7.822;2022-07-18T10:51:33;29.90;77.70
2565;DHT22;1292;48.020;7.822;2022-07-18T10:54:06;30.00;79.00
2565;DHT22;1292;48.020;7.822;2022-07-18T10:57:07;29.90;78.10
2565;DHT22;1292;48.020;7.822;2022-07-18T10:59:38;30.00;78.50
2565;DHT22;1292;48.020;7.822;2022-07-18T11:02:07;30.10;77.70
2565;DHT22;1292;48.020;7.822;2022-07-18T11:04:37;30.30;78.30
2565;DHT22;1292;48.020;7.822;2022-07-18T11:07:08;30.40;76.20
2565;DHT22;1292;48.020;7.822;2022-07-18T11:09:38;30.60;76.30
2565;DHT22;1292;48.020;7.822;2022-07-18T11:12:28;30.70;76.80
2565;DHT22;1292;48.020;7.822;2022-07-18T11:15:08;30.80;76.30
2565;DHT22;1292;48.020;7.822;2022-07-18T11:18:03;31.00;74.80
2565;DHT22;1292;48.020;7.822;2022-07-18T11:20:39;30.80;74.80
2565;DHT22;1292;48.020;7.822;2022-07-18T11:23:18;30.70;75.40
2565;DHT22;1292;48.020;7.822;2022-07-18T11:25:46;30.80;75.90
2565;DHT22;1292;48.020;7.822;2022-07-18T11:28:13;31.00;75.20
2565;DHT22;1292;48.020;7.822;2022-07-18T11:30:41;31.20;74.80
2565;DHT22;1292;48.020;7.822;2022-07-18T11:33:23;31.30;74.10
2565;DHT22;1292;48.020;7.822;2022-07-18T11:35:51;31.40;73.20
2565;DHT22;1292;48.020;7.822;2022-07-18T11:38:18;31.40;71.20
2565;DHT22;1292;48.020;7.822;2022-07-18T11:40:51;31.50;73.00
2565;DHT22;1292;48.020;7.822;2022-07-18T11:43:22;31.60;74.70
2565;DHT22;1292;48.020;7.822;2022-07-18T11:46:02;31.70;74.80
2565;DHT22;1292;48.020;7.822;2022-07-18T11:48:30;31.70;74.60
2565;DHT22;1292;48.020;7.822;2022-07-18T11:50:57;31.90;76.50
2565;DHT22;1292;48.020;7.822;2022-07-18T11:53:24;31.90;75.60
2565;DHT22;1292;48.020;7.822;2022-07-18T11:55:52;31.80;73.40
2565;DHT22;1292;48.020;7.822;2022-07-18T11:58:20;32.00;74.10
2565;DHT22;1292;48.020;7.822;2022-07-18T12:00:47;31.90;72.30
2565;DHT22;1292;48.020;7.822;2022-07-18T12:03:17;31.90;74.10
2565;DHT22;1292;48.020;7.822;2022-07-18T12:05:48;32.00;72.40
2565;DHT22;1292;48.020;7.822;2022-07-18T12:08:25;32.20;72.80
2565;DHT22;1292;48.020;7.822;2022-07-18T12:11:09;32.10;70.50
2565;DHT22;1292;48.020;7.822;2022-07-18T12:13:45;32.10;70.20
2565;DHT22;1292;48.020;7.822;2022-07-18T12:16:26;32.20;72.10
2565;DHT22;1292;48.020;7.822;2022-07-18T12:18:56;32.30;71.10
2565;DHT22;1292;48.020;7.822;2022-07-18T12:21:37;32.40;70.90
2565;DHT22;1292;48.020;7.822;2022-07-18T12:24:22;32.50;71.50
2565;DHT22;1292;48.020;7.822;2022-07-18T12:27:06;32.60;72.60
2565;DHT22;1292;48.020;7.822;2022-07-18T12:30:02;32.80;70.30
2565;DHT22;1292;48.020;7.822;2022-07-18T12:32:37;32.80;70.30
2565;DHT22;1292;48.020;7.822;2022-07-18T12:35:06;32.80;70.70
2565;DHT22;1292;48.020;7.822;2022-07-18T12:37:35;32.90;69.30
2565;DHT22;1292;48.020;7.822;2022-07-18T12:40:04;32.90;68.00
2565;DHT22;1292;48.020;7.822;2022-07-18T12:42:33;32.80;68.20
2565;DHT22;1292;48.020;7.822;2022-07-18T12:45:01;32.80;68.50
2565;DHT22;1292;48.020;7.822;2022-07-18T12:47:28;32.90;70.40
2565;DHT22;1292;48.020;7.822;2022-07-18T12:49:55;33.00;69.20
2565;DHT22;1292;48.020;7.822;2022-07-18T12:52:22;33.20;71.90
2565;DHT22;1292;48.020;7.822;2022-07-18T12:54:51;33.40;70.40
2565;DHT22;1292;48.020;7.822;2022-07-18T12:57:18;33.30;67.10
2565;DHT22;1292;48.020;7.822;2022-07-18T12:59:46;33.40;68.90
2565;DHT22;1292;48.020;7.822;2022-07-18T13:02:13;33.50;68.10
2565;DHT22;1292;48.020;7.822;2022-07-18T13:04:40;33.60;65.90
2565;DHT22;1292;48.020;7.822;2022-07-18T13:07:07;33.60;67.50
2565;DHT22;1292;48.020;7.822;2022-07-18T13:09:34;33.70;66.30
2565;DHT22;1292;48.020;7.822;2022-07-18T13:12:03;33.80;66.90
2565;DHT22;1292;48.020;7.822;2022-07-18T13:14:30;33.90;68.30
2565;DHT22;1292;48.020;7.822;2022-07-18T13:16:56;34.10;69.40
2565;DHT22;1292;48.020;7.822;2022-07-18T13:19:23;34.10;67.10
2565;DHT22;1292;48.020;7.822;2022-07-18T13:21:50;34.00;65.80
2565;DHT22;1292;48.020;7.822;2022-07-18T13:24:17;34.00;65.90
2565;DHT22;1292;48.020;7.822;2022-07-18T13:26:43;33.90;64.70
2565;DHT22;1292;48.020;7.822;2022-07-18T13:29:12;34.00;66.50
2565;DHT22;1292;48.020;7.822;2022-07-18T13:31:39;34.00;66.40
2565;DHT22;1292;48.020;7.822;2022-07-18T13:34:05;33.90;66.20
2565;DHT22;1292;48.020;7.822;2022-07-18T13:36:32;34.00;66.60
2565;DHT22;1292;48.020;7.822;2022-07-18T13:38:59;34.10;66.10
2565;DHT22;1292;48.020;7.822;2022-07-18T13:41:28;34.10;65.80
2565;DHT22;1292;48.020;7.822;2022-07-18T13:43:55;34.10;65.80
2565;DHT22;1292;48.020;7.822;2022-07-18T13:46:23;34.00;64.90
2565;DHT22;1292;48.020;7.822;2022-07-18T13:48:50;33.90;67.30
2565;DHT22;1292;48.020;7.822;2022-07-18T13:51:17;34.00;67.90
2565;DHT22;1292;48.020;7.822;2022-07-18T13:53:44;33.90;67.10
2565;DHT22;1292;48.020;7.822;2022-07-18T13:56:11;33.90;66.30
2565;DHT22;1292;48.020;7.822;2022-07-18T13:58:37;34.00;69.20
2565;DHT22;1292;48.020;7.822;2022-07-18T14:01:05;34.20;67.40
2565;DHT22;1292;48.020;7.822;2022-07-18T14:03:33;34.20;67.60
2565;DHT22;1292;48.020;7.822;2022-07-18T14:06:00;34.20;66.60
2565;DHT22;1292;48.020;7.822;2022-07-18T14:08:27;34.20;69.20
2565;DHT22;1292;48.020;7.822;2022-07-18T14:10:54;34.30;68.30
2565;DHT22;1292;48.020;7.822;2022-07-18T14:13:20;34.50;67.70
2565;DHT22;1292;48.020;7.822;2022-07-18T14:15:47;34.50;67.70
2565;DHT22;1292;48.020;7.822;2022-07-18T14:18:14;34.50;67.60
2565;DHT22;1292;48.020;7.822;2022-07-18T14:20:42;34.50;67.90
2565;DHT22;1292;48.020;7.822;2022-07-18T14:23:09;34.50;68.40
2565;DHT22;1292;48.020;7.822;2022-07-18T14:25:36;34.50;68.40
2565;DHT22;1292;48.020;7.822;2022-07-18T14:28:03;34.50;68.20
2565;DHT22;1292;48.020;7.822;2022-07-18T14:30:30;34.50;69.30
2565;DHT22;1292;48.020;7.822;2022-07-18T14:32:57;34.50;68.10
2565;DHT22;1292;48.020;7.822;2022-07-18T14:35:24;34.50;69.50
2565;DHT22;1292;48.020;7.822;2022-07-18T14:37:52;34.60;68.70
2565;DHT22;1292;48.020;7.822;2022-07-18T14:40:19;34.80;67.10
2565;DHT22;1292;48.020;7.822;2022-07-18T14:42:46;34.60;67.30
2565;DHT22;1292;48.020;7.822;2022-07-18T14:45:12;34.60;66.20
2565;DHT22;1292;48.020;7.822;2022-07-18T14:47:39;34.50;66.60
2565;DHT22;1292;48.020;7.822;2022-07-18T14:50:07;34.40;66.90
2565;DHT22;1292;48.020;7.822;2022-07-18T14:52:35;34.50;67.50
2565;DHT22;1292;48.020;7.822;2022-07-18T14:55:04;34.40;66.40
2565;DHT22;1292;48.020;7.822;2022-07-18T14:57:31;34.40;66.10
2565;DHT22;1292;48.020;7.822;2022-07-18T14:59:58;34.30;67.40
2565;DHT22;1292;48.020;7.822;2022-07-18T15:02:25;34.50;67.10
2565;DHT22;1292;48.020;7.822;2022-07-18T15:04:52;34.50;66.80
2565;DHT22;1292;48.020;7.822;2022-07-18T15:07:18;34.60;66.60
2565;DHT22;1292;48.020;7.822;2022-07-18T15:09:45;34.50;65.70
2565;DHT22;1292;48.020;7.822;2022-07-18T15:12:13;34.40;66.30
2565;DHT22;1292;48.020;7.822;2022-07-18T15:14:41;34.50;67.80
2565;DHT22;1292;48.020;7.822;2022-07-18T15:17:08;34.50;67.80
2565;DHT22;1292;48.020;7.822;2022-07-18T15:19:35;34.50;66.40
2565;DHT22;1292;48.020;7.822;2022-07-18T15:22:01;34.60;68.40
2565;DHT22;1292;48.020;7.822;2022-07-18T15:24:30;34.60;67.50
2565;DHT22;1292;48.020;7.822;2022-07-18T15:26:57;34.80;67.10
2565;DHT22;1292;48.020;7.822;2022-07-18T15:29:25;34.80;67.90
2565;DHT22;1292;48.020;7.822;2022-07-18T15:31:52;34.70;66.80
2565;DHT22;1292;48.020;7.822;2022-07-18T15:34:19;34.80;67.10
2565;DHT22;1292;48.020;7.822;2022-07-18T15:36:46;34.70;67.00
2565;DHT22;1292;48.020;7.822;2022-07-18T15:39:12;34.80;67.60
2565;DHT22;1292;48.020;7.822;2022-07-18T15:41:39;34.80;67.20
2565;DHT22;1292;48.020;7.822;2022-07-18T15:44:08;34.80;66.80
2565;DHT22;1292;48.020;7.822;2022-07-18T15:46:37;34.70;66.80
2565;DHT22;1292;48.020;7.822;2022-07-18T15:49:04;34.70;66.30
2565;DHT22;1292;48.020;7.822;2022-07-18T15:51:31;34.70;67.00
2565;DHT22;1292;48.020;7.822;2022-07-18T15:53:57;34.60;67.70
2565;DHT22;1292;48.020;7.822;2022-07-18T15:56:24;34.50;66.80
2565;DHT22;1292;48.020;7.822;2022-07-18T15:58:51;34.50;67.50
2565;DHT22;1292;48.020;7.822;2022-07-18T16:01:18;34.50;67.00
2565;DHT22;1292;48.020;7.822;2022-07-18T16:03:47;34.40;67.20
2565;DHT22;1292;48.020;7.822;2022-07-18T16:06:14;34.40;66.40
2565;DHT22;1292;48.020;7.822;2022-07-18T16:08:41;34.30;67.80
2565;DHT22;1292;48.020;7.822;2022-07-18T16:11:08;34.30;66.50
2565;DHT22;1292;48.020;7.822;2022-07-18T16:13:35;34.30;66.50
2565;DHT22;1292;48.020;7.822;2022-07-18T16:16:02;34.20;65.20
2565;DHT22;1292;48.020;7.822;2022-07-18T16:18:29;34.20;66.20
2565;DHT22;1292;48.020;7.822;2022-07-18T16:20:57;34.20;66.80
2565;DHT22;1292;48.020;7.822;2022-07-18T16:23:24;34.20;65.50
2565;DHT22;1292;48.020;7.822;2022-07-18T16:25:50;34.20;65.90
2565;DHT22;1292;48.020;7.822;2022-07-18T16:28:17;34.10;65.60
2565;DHT22;1292;48.020;7.822;2022-07-18T16:30:44;34.10;66.30
2565;DHT22;1292;48.020;7.822;2022-07-18T16:33:11;34.10;66.20
2565;DHT22;1292;48.020;7.822;2022-07-18T16:35:38;34.10;65.80
2565;DHT22;1292;48.020;7.822;2022-07-18T16:38:06;33.90;65.70
2565;DHT22;1292;48.020;7.822;2022-07-18T16:40:33;34.00;66.50
2565;DHT22;1292;48.020;7.822;2022-07-18T16:43:00;34.00;66.00
2565;DHT22;1292;48.020;7.822;2022-07-18T16:45:27;34.00;65.70
2565;DHT22;1292;48.020;7.822;2022-07-18T16:47:55;33.90;67.20
2565;DHT22;1292;48.020;7.822;2022-07-18T16:50:22;34.00;66.60
2565;DHT22;1292;48.020;7.822;2022-07-18T16:52:49;34.00;66.80
2565;DHT22;1292;48.020;7.822;2022-07-18T16:55:18;34.00;66.50
2565;DHT22;1292;48.020;7.822;2022-07-18T16:57:45;33.90;66.30
2565;DHT22;1292;48.020;7.822;2022-07-18T17:00:13;33.90;65.70
2565;DHT22;1292;48.020;7.822;2022-07-18T17:02:40;33.90;66.20
2565;DHT22;1292;48.020;7.822;2022-07-18T17:05:08;33.90;65.10
2565;DHT22;1292;48.020;7.822;2022-07-18T17:07:35;33.80;65.60
2565;DHT22;1292;48.020;7.822;2022-07-18T17:10:03;33.80;66.20
2565;DHT22;1292;48.020;7.822;2022-07-18T17:12:31;33.70;65.10
2565;DHT22;1292;48.020;7.822;2022-07-18T17:15:01;33.60;64.40
2565;DHT22;1292;48.020;7.822;2022-07-18T17:17:28;33.60;64.60
2565;DHT22;1292;48.020;7.822;2022-07-18T17:19:55;33.50;64.90
2565;DHT22;1292;48.020;7.822;2022-07-18T17:22:23;33.40;65.60
2565;DHT22;1292;48.020;7.822;2022-07-18T17:24:51;33.40;65.90
2565;DHT22;1292;48.020;7.822;2022-07-18T17:27:18;33.40;66.50
2565;DHT22;1292;48.020;7.822;2022-07-18T17:29:48;33.40;66.40
2565;DHT22;1292;48.020;7.822;2022-07-18T17:32:15;33.40;66.90
2565;DHT22;1292;48.020;7.822;2022-07-18T17:34:42;33.30;66.30
2565;DHT22;1292;48.020;7.822;2022-07-18T17:37:10;33.30;67.60
2565;DHT22;1292;48.020;7.822;2022-07-18T17:39:39;33.20;67.60
2565;DHT22;1292;48.020;7.822;2022-07-18T17:42:06;33.20;67.50
2565;DHT22;1292;48.020;7.822;2022-07-18T17:44:34;33.10;67.80
2565;DHT22;1292;48.020;7.822;2022-07-18T17:47:03;33.00;68.10
2565;DHT22;1292;48.020;7.822;2022-07-18T17:49:30;32.90;68.30
2565;DHT22;1292;48.020;7.822;2022-07-18T17:51:58;32.90;68.60
2565;DHT22;1292;48.020;7.822;2022-07-18T17:54:25;32.90;69.10
2565;DHT22;1292;48.020;7.822;2022-07-18T17:56:52;32.70;68.80
2565;DHT22;1292;48.020;7.822;2022-07-18T17:59:19;32.70;69.00
2565;DHT22;1292;48.020;7.822;2022-07-18T18:01:46;32.60;69.00
2565;DHT22;1292;48.020;7.822;2022-07-18T18:04:14;32.60;69.10
2565;DHT22;1292;48.020;7.822;2022-07-18T18:06:40;32.50;69.30
2565;DHT22;1292;48.020;7.822;2022-07-18T18:09:07;32.40;69.20
2565;DHT22;1292;48.020;7.822;2022-07-18T18:11:34;32.30;69.80
2565;DHT22;1292;48.020;7.822;2022-07-18T18:14:01;32.30;70.40
2565;DHT22;1292;48.020;7.822;2022-07-18T18:16:28;32.20;70.50
2565;DHT22;1292;48.020;7.822;2022-07-18T18:18:55;32.20;70.70
2565;DHT22;1292;48.020;7.822;2022-07-18T18:21:23;32.20;70.80
2565;DHT22;1292;48.020;7.822;2022-07-18T18:23:50;32.00;71.30
2565;DHT22;1292;48.020;7.822;2022-07-18T18:26:17;31.90;71.80
2565;DHT22;1292;48.020;7.822;2022-07-18T18:28:44;31.90;72.50
2565;DHT22;1292;48.020;7.822;2022-07-18T18:31:11;31.90;72.60
2565;DHT22;1292;48.020;7.822;2022-07-18T18:33:38;31.90;72.50
2565;DHT22;1292;48.020;7.822;2022-07-18T18:36:05;31.80;72.60
2565;DHT22;1292;48.020;7.822;2022-07-18T18:38:36;31.80;73.30
2565;DHT22;1292;48.020;7.822;2022-07-18T18:41:02;31.80;72.90
2565;DHT22;1292;48.020;7.822;2022-07-18T18:43:29;31.70;77.50
2565;DHT22;1292;48.020;7.822;2022-07-18T18:45:56;31.70;78.00
2565;DHT22;1292;48.020;7.822;2022-07-18T18:48:23;31.60;76.40
2565;DHT22;1292;48.020;7.822;2022-07-18T18:50:50;31.50;75.00
2565;DHT22;1292;48.020;7.822;2022-07-18T18:53:16;31.50;75.50
2565;DHT22;1292;48.020;7.822;2022-07-18T18:55:45;31.40;77.40
2565;DHT22;1292;48.020;7.822;2022-07-18T18:58:11;31.30;78.30
2565;DHT22;1292;48.020;7.822;2022-07-18T19:00:38;31.20;79.40
2565;DHT22;1292;48.020;7.822;2022-07-18T19:03:05;31.10;79.30
2565;DHT22;1292;48.020;7.822;2022-07-18T19:05:32;30.90;79.50
2565;DHT22;1292;48.020;7.822;2022-07-18T19:07:58;30.80;80.60
2565;DHT22;1292;48.020;7.822;2022-07-18T19:10:25;30.60;81.00
2565;DHT22;1292;48.020;7.822;2022-07-18T19:12:53;30.50;81.30
2565;DHT22;1292;48.020;7.822;2022-07-18T19:15:20;30.40;83.70
2565;DHT22;1292;48.020;7.822;2022-07-18T19:17:47;30.30;83.80
2565;DHT22;1292;48.020;7.822;2022-07-18T19:20:14;30.20;82.80
2565;DHT22;1292;48.020;7.822;2022-07-18T19:22:41;30.10;83.10
2565;DHT22;1292;48.020;7.822;2022-07-18T19:25:08;30.00;83.10
2565;DHT22;1292;48.020;7.822;2022-07-18T19:27:36;29.90;85.20
2565;DHT22;1292;48.020;7.822;2022-07-18T19:30:05;29.80;87.90
2565;DHT22;1292;48.020;7.822;2022-07-18T19:32:32;29.70;86.30
2565;DHT22;1292;48.020;7.822;2022-07-18T19:34:59;29.60;87.60
2565;DHT22;1292;48.020;7.822;2022-07-18T19:37:25;29.50;90.00
2565;DHT22;1292;48.020;7.822;2022-07-18T19:39:52;29.40;88.40
2565;DHT22;1292;48.020;7.822;2022-07-18T19:42:19;29.30;90.30
2565;DHT22;1292;48.020;7.822;2022-07-18T19:44:46;29.20;91.30
2565;DHT22;1292;48.020;7.822;2022-07-18T19:47:14;29.00;90.60
2565;DHT22;1292;48.020;7.822;2022-07-18T19:49:41;28.90;89.60
2565;DHT22;1292;48.020;7.822;2022-07-18T19:52:07;28.80;90.00
2565;DHT22;1292;48.020;7.822;2022-07-18T19:54:36;28.70;91.80
2565;DHT22;1292;48.020;7.822;2022-07-18T19:57:04;28.50;92.90
2565;DHT22;1292;48.020;7.822;2022-07-18T19:59:31;28.30;95.10
2565;DHT22;1292;48.020;7.822;2022-07-18T20:01:58;27.80;96.50
2565;DHT22;1292;48.020;7.822;2022-07-18T20:04:27;27.50;96.50
2565;DHT22;1292;48.020;7.822;2022-07-18T20:06:53;27.30;96.30
2565;DHT22;1292;48.020;7.822;2022-07-18T20:09:20;27.10;98.20
2565;DHT22;1292;48.020;7.822;2022-07-18T20:11:47;27.10;96.80
2565;DHT22;1292;48.020;7.822;2022-07-18T20:14:14;27.10;95.80
2565;DHT22;1292;48.020;7.822;2022-07-18T20:16:41;27.20;94.90
2565;DHT22;1292;48.020;7.822;2022-07-18T20:19:08;27.20;94.50
2565;DHT22;1292;48.020;7.822;2022-07-18T20:21:36;27.10;93.70
2565;DHT22;1292;48.020;7.822;2022-07-18T20:24:04;27.10;94.50
2565;DHT22;1292;48.020;7.822;2022-07-18T20:26:31;27.10;93.70
2565;DHT22;1292;48.020;7.822;2022-07-18T20:28:58;27.10;93.90
2565;DHT22;1292;48.020;7.822;2022-07-18T20:31:25;27.10;94.00
2565;DHT22;1292;48.020;7.822;2022-07-18T20:33:52;27.00;94.10
2565;DHT22;1292;48.020;7.822;2022-07-18T20:36:19;27.00;95.30
2565;DHT22;1292;48.020;7.822;2022-07-18T20:38:47;27.00;94.80
2565;DHT22;1292;48.020;7.822;2022-07-18T20:41:14;26.90;94.70
2565;DHT22;1292;48.020;7.822;2022-07-18T20:43:41;26.80;94.10
2565;DHT22;1292;48.020;7.822;2022-07-18T20:46:08;26.70;94.60
2565;DHT22;1292;48.020;7.822;2022-07-18T20:48:37;26.60;94.30
2565;DHT22;1292;48.020;7.822;2022-07-18T20:51:04;26.60;94.80
2565;DHT22;1292;48.020;7.822;2022-07-18T20:53:32;26.50;94.00
2565;DHT22;1292;48.020;7.822;2022-07-18T20:56:00;26.50;93.90
2565;DHT22;1292;48.020;7.822;2022-07-18T20:58:27;26.50;93.60
